Main page
METAR-TAF:

METAR-TAF

Airports :

Leeds Bradford, England

Leeds Bradford Airport

latitude: 53-52N, longitude: 001-39W, elevation: 208 m

Current weather observation

The report was made 56 minutes ago, at 09:50 UTC
Wind 7 kt from the West
Temperature 3°C
Humidity 87%
Pressure 1028 hPa
Visibility 10 km or more
no clouds below 1500 m and no cumulonimbus

METAR: EGNM 180950Z 27007KT CAVOK 03/01 Q1028

Time: 10:46 (10:46 UTC)

Forecast

The report was made 5 hours and 46 minutes ago, at 05:00 UTC
Forecast valid from 18 at 06 UTC to 19 at 06 UTC
Wind 5 kt from the North/Northwest
Visibility 10 km or more
no clouds below 1500 m and no cumulonimbus
Probability 30% :
Temporary
from 18 at 06 UTC to 18 at 10 UTC
Visibility: 7000 m
Probability 30% :
Temporary
from 18 at 16 UTC to 19 at 06 UTC
Visibility: 6000 m
Broken clouds at a height of 600 ft

TAF: EGNM 180500Z 1806/1906 33005KT CAVOK PROB30 TEMPO 1806/1810 7000 PROB30 TEMPO 1816/1906 6000 BKN006

Weather observations and forecasts of more than 4000 airports (METAR and TAF reports).

The available stations are represented by yellow and red dots on the map.

Hover mouse over dot to see the name of the station.

Then click to see weather observations and forecasts.

To change the map : click on the green buttons with a black cross to zoom in, on the green button with a dash to zoom out, or on the green arrows for adjacent maps.


METAR-TAF: